createdAt,value
2023-04-13T00:04:18.866Z,72.20
2023-04-13T00:09:18.684Z,71.92
2023-04-13T00:14:15.198Z,71.98
2023-04-13T00:19:12.850Z,71.79
2023-04-13T00:24:09.370Z,72.18
2023-04-13T00:29:06.413Z,72.25
2023-04-13T00:34:02.865Z,72.13
2023-04-13T00:38:59.369Z,72.43
2023-04-13T00:43:55.991Z,72.36
2023-04-13T00:48:52.894Z,72.23
2023-04-13T00:53:49.634Z,72.44
2023-04-13T00:58:46.256Z,72.25
2023-04-13T01:03:42.760Z,72.63
2023-04-13T01:08:46.970Z,72.44
2023-04-13T01:13:47.729Z,72.90
2023-04-13T01:18:45.683Z,72.66
2023-04-13T01:24:01.752Z,72.73
2023-04-13T01:28:59.081Z,73.01
2023-04-13T01:33:56.436Z,72.78
2023-04-13T01:38:53.081Z,72.77
2023-04-13T01:43:49.611Z,73.18
2023-04-13T01:48:49.337Z,72.72
2023-04-13T01:54:07.805Z,72.93
2023-04-13T01:59:05.052Z,72.81
2023-04-13T02:04:02.881Z,73.02
2023-04-13T02:08:59.842Z,73.03
2023-04-13T02:13:58.024Z,73.38
2023-04-13T02:18:54.891Z,73.42
2023-04-13T02:23:52.495Z,73.24
2023-04-13T02:28:49.947Z,73.18
2023-04-13T02:33:46.520Z,73.49
2023-04-13T02:38:43.302Z,73.35
2023-04-13T02:43:39.749Z,73.15
2023-04-13T02:48:36.534Z,73.38
2023-04-13T02:53:36.385Z,73.53
2023-04-13T02:58:32.823Z,73.59
2023-04-13T03:03:31.941Z,73.72
2023-04-13T03:08:28.758Z,73.47
2023-04-13T03:13:25.498Z,73.65
2023-04-13T03:18:22.151Z,73.83
2023-04-13T03:23:19.340Z,73.81
2023-04-13T03:28:15.878Z,73.86
2023-04-13T03:33:12.338Z,73.85
2023-04-13T03:38:10.271Z,73.81
2023-04-13T03:43:07.015Z,73.58
2023-04-13T03:48:05.847Z,73.87
2023-04-13T03:53:02.551Z,73.92
2023-04-13T03:57:59.053Z,73.85
2023-04-13T04:02:55.718Z,73.88
2023-04-13T04:07:52.282Z,74.04
2023-04-13T04:12:48.771Z,74.18
2023-04-13T04:17:45.414Z,74.04
2023-04-13T04:22:44.662Z,73.92
2023-04-13T04:27:50.006Z,74.07
2023-04-13T04:32:54.759Z,74.27
2023-04-13T04:37:53.154Z,74.45
2023-04-13T04:42:50.748Z,74.49
2023-04-13T04:48:15.361Z,74.33
2023-04-13T13:30:17.321Z,52.34
2023-04-13T15:24:14.350Z,53.80
2023-04-13T15:29:14.228Z,53.78
2023-04-13T15:34:10.911Z,53.67
2023-04-13T15:39:08.341Z,54.04
2023-04-13T15:44:05.052Z,54.27
2023-04-13T15:49:02.548Z,54.43
2023-04-13T15:54:00.942Z,54.00
2023-04-13T15:58:57.720Z,54.34
2023-04-13T16:03:59.635Z,54.17
2023-04-13T16:08:56.676Z,54.25
2023-04-13T16:13:57.390Z,54.50
2023-04-13T16:40:59.716Z,53.77
2023-04-13T16:45:58.837Z,54.00
2023-04-13T17:41:34.836Z,60.67
2023-04-13T18:37:07.870Z,65.17
2023-04-13T20:35:36.788Z,67.13
2023-04-13T20:40:36.055Z,66.82
2023-04-13T20:45:32.654Z,67.11
2023-04-13T20:50:32.043Z,67.41
2023-04-13T20:55:28.541Z,67.44
2023-04-13T21:00:27.283Z,67.88
2023-04-13T21:05:24.158Z,67.89
2023-04-13T21:10:21.509Z,67.76
2023-04-13T21:15:27.337Z,67.61
2023-04-13T21:20:24.058Z,67.83
2023-04-13T21:25:22.479Z,67.97
2023-04-13T21:30:19.039Z,68.00
2023-04-13T21:35:17.362Z,68.23
2023-04-13T21:40:17.399Z,68.41
2023-04-13T21:45:13.876Z,68.84
2023-04-13T21:50:10.560Z,68.90
2023-04-13T21:55:07.253Z,68.84
2023-04-13T22:00:06.342Z,68.93
2023-04-13T22:05:03.532Z,68.90
2023-04-13T22:09:59.854Z,69.33
2023-04-13T22:14:59.486Z,69.51
2023-04-13T22:19:56.206Z,69.34
2023-04-13T22:24:53.144Z,69.69
2023-04-13T22:29:53.537Z,69.51
2023-04-13T22:34:50.148Z,69.60
2023-04-13T22:39:46.891Z,69.47
2023-04-13T22:44:43.340Z,69.72
2023-04-13T22:49:39.852Z,69.64
2023-04-13T22:54:36.357Z,69.77
2023-04-13T22:59:32.855Z,69.93
2023-04-13T23:04:29.775Z,70.03
2023-04-13T23:09:26.281Z,70.47
2023-04-13T23:14:24.446Z,70.15
2023-04-13T23:19:21.089Z,70.33
2023-04-13T23:24:17.568Z,70.37
2023-04-13T23:29:16.103Z,70.49
2023-04-13T23:34:13.359Z,70.71
2023-04-13T23:39:09.803Z,70.90
2023-04-13T23:44:06.300Z,70.90
2023-04-13T23:49:02.757Z,70.67
2023-04-13T23:53:59.286Z,70.58
2023-04-13T23:58:58.600Z,70.65
